createdAt,value
2018-09-28T00:00:59.698Z,4.40
2018-09-28T00:03:40.422Z,3.70
2018-09-28T00:06:21.088Z,3.57
2018-09-28T00:09:01.599Z,3.87
2018-09-28T00:11:42.337Z,3.67
2018-09-28T00:14:23.484Z,3.93
2018-09-28T00:17:04.071Z,3.93
2018-09-28T00:19:45.399Z,3.67
2018-09-28T00:22:26.275Z,3.83
2018-09-28T00:25:07.383Z,3.93
2018-09-28T00:27:48.216Z,3.98
2018-09-28T00:30:29.087Z,4.30
2018-09-28T00:33:09.506Z,4.80
2018-09-28T00:35:51.640Z,4.42
2018-09-28T00:38:32.542Z,4.58
2018-09-28T00:41:13.736Z,4.40
2018-09-28T00:43:54.544Z,4.62
2018-09-28T00:46:36.078Z,5.03
2018-09-28T00:49:17.701Z,4.85
2018-09-28T00:51:59.071Z,5.00
2018-09-28T00:54:39.904Z,4.87
2018-09-28T00:57:21.079Z,4.47
2018-09-28T01:00:02.307Z,4.40
2018-09-28T01:02:43.170Z,4.55
2018-09-28T01:05:24.411Z,4.42
2018-09-28T01:08:06.100Z,4.15
2018-09-28T01:10:47.522Z,4.53
2018-09-28T01:13:28.738Z,4.62
2018-09-28T01:16:09.531Z,4.75
2018-09-28T01:18:50.826Z,4.42
2018-09-28T01:21:32.000Z,4.03
2018-09-28T01:24:13.284Z,4.33
2018-09-28T01:26:54.091Z,4.53
2018-09-28T01:29:34.872Z,4.50
2018-09-28T01:32:15.682Z,4.37
2018-09-28T01:34:56.607Z,4.80
2018-09-28T01:37:38.070Z,4.08
2018-09-28T01:40:18.862Z,4.40
2018-09-28T01:42:59.600Z,5.10
2018-09-28T01:45:40.606Z,4.12
2018-09-28T01:48:21.411Z,4.78
2018-09-28T01:51:02.996Z,4.90
2018-09-28T01:53:44.524Z,4.10
2018-09-28T01:56:26.382Z,3.92
2018-09-28T01:59:08.212Z,4.78
2018-09-28T02:01:49.306Z,4.62
2018-09-28T02:04:30.734Z,3.83
2018-09-28T02:07:12.132Z,4.50
2018-09-28T02:09:53.140Z,3.90
2018-09-28T02:12:33.992Z,3.62
2018-09-28T02:15:14.960Z,4.12
2018-09-28T02:17:55.663Z,4.47
2018-09-28T02:20:36.825Z,4.30
2018-09-28T02:23:17.529Z,4.50
2018-09-28T02:25:58.831Z,4.62
2018-09-28T02:28:39.648Z,4.20
2018-09-28T02:31:20.431Z,3.85
2018-09-28T02:34:02.432Z,4.55
2018-09-28T02:36:43.608Z,4.55
2018-09-28T02:39:24.933Z,4.65
2018-09-28T02:42:07.184Z,4.30
2018-09-28T02:44:48.326Z,4.30
2018-09-28T02:47:29.391Z,4.30
2018-09-28T02:50:10.444Z,4.33
2018-09-28T02:52:51.323Z,4.78
2018-09-28T02:55:32.015Z,4.50
2018-09-28T02:58:12.760Z,4.50
2018-09-28T03:00:54.107Z,4.35
2018-09-28T03:03:36.242Z,4.67
2018-09-28T03:06:17.130Z,4.30
2018-09-28T03:08:59.491Z,4.35
2018-09-28T03:11:41.099Z,5.00
2018-09-28T03:14:21.881Z,4.40
2018-09-28T03:17:02.709Z,4.95
2018-09-28T03:19:43.864Z,4.65
2018-09-28T03:22:24.560Z,4.80
2018-09-28T03:25:05.832Z,5.15
2018-09-28T03:27:46.546Z,5.50
2018-09-28T03:30:27.348Z,5.47
2018-09-28T03:33:08.427Z,4.95
2018-09-28T03:35:49.382Z,4.95
2018-09-28T03:38:30.023Z,4.50
2018-09-28T03:41:10.834Z,4.90
2018-09-28T03:43:51.587Z,5.42
2018-09-28T03:46:32.675Z,5.20
2018-09-28T03:49:13.343Z,5.35
2018-09-28T03:51:54.708Z,4.55
2018-09-28T03:54:35.422Z,5.00
2018-09-28T03:57:16.228Z,4.75
2018-09-28T03:59:56.927Z,5.08
2018-09-28T04:02:38.195Z,5.33
2018-09-28T04:05:19.314Z,5.45
2018-09-28T04:08:00.361Z,4.87
2018-09-28T04:10:41.690Z,5.20
2018-09-28T04:13:22.763Z,6.10
2018-09-28T04:16:04.403Z,6.35
2018-09-28T04:18:45.122Z,4.92
2018-09-28T04:21:27.150Z,6.37
2018-09-28T04:24:08.612Z,5.35
2018-09-28T04:26:49.667Z,5.37
2018-09-28T04:29:32.482Z,5.97
2018-09-28T04:32:13.232Z,6.28
2018-09-28T04:34:54.051Z,6.45
2018-09-28T04:37:35.185Z,6.12
2018-09-28T04:40:15.963Z,6.42
2018-09-28T04:42:57.378Z,6.25
2018-09-28T04:45:38.296Z,7.40
2018-09-28T04:48:19.852Z,6.92
2018-09-28T04:51:00.576Z,7.12
2018-09-28T04:53:41.495Z,6.92
2018-09-28T04:56:22.198Z,7.83
2018-09-28T04:59:03.445Z,7.97
2018-09-28T05:01:44.452Z,9.38
2018-09-28T05:04:25.938Z,8.25
2018-09-28T05:07:07.811Z,9.58
2018-09-28T05:09:48.582Z,9.13
2018-09-28T05:12:29.817Z,9.35
2018-09-28T05:15:11.408Z,10.15
2018-09-28T05:17:52.238Z,9.80
2018-09-28T05:20:33.456Z,9.50
2018-09-28T05:23:14.152Z,9.60
2018-09-28T05:25:55.429Z,8.93
2018-09-28T05:28:36.400Z,8.75
2018-09-28T05:31:18.051Z,7.80
2018-09-28T05:33:59.099Z,9.03
2018-09-28T05:36:40.190Z,8.73
2018-09-28T05:39:21.263Z,8.68
2018-09-28T05:42:02.591Z,7.45
2018-09-28T05:44:43.953Z,8.65
2018-09-28T05:47:25.129Z,8.20
2018-09-28T05:50:06.176Z,8.15
2018-09-28T05:52:47.998Z,8.73
2018-09-28T05:55:29.124Z,8.43
2018-09-28T05:58:15.316Z,7.65
2018-09-28T06:01:02.264Z,8.50
2018-09-28T06:03:48.584Z,9.43
2018-09-28T06:06:29.476Z,8.35
2018-09-28T06:09:11.709Z,8.48
2018-09-28T06:11:52.653Z,8.30
2018-09-28T06:14:34.016Z,8.33
2018-09-28T06:17:15.256Z,8.80
2018-09-28T06:19:55.921Z,8.30
2018-09-28T06:22:37.100Z,8.08
2018-09-28T06:25:18.536Z,8.60
2018-09-28T06:27:59.586Z,8.85
2018-09-28T06:30:40.848Z,8.63
2018-09-28T06:33:21.959Z,8.20
2018-09-28T06:36:03.617Z,8.03
2018-09-28T06:38:45.147Z,7.42
2018-09-28T06:41:26.289Z,8.33
2018-09-28T06:44:07.284Z,8.10
2018-09-28T06:46:48.579Z,8.00
2018-09-28T06:49:29.553Z,7.53
2018-09-28T06:52:10.530Z,7.57
2018-09-28T06:54:51.323Z,8.30
2018-09-28T06:57:32.341Z,8.47
2018-09-28T07:00:13.948Z,8.97
2018-09-28T07:02:54.732Z,8.10
2018-09-28T07:05:35.248Z,8.40
2018-09-28T07:08:16.444Z,8.80
2018-09-28T07:10:57.380Z,8.97
2018-09-28T07:13:38.306Z,8.93
2018-09-28T07:16:19.013Z,8.90
2018-09-28T07:18:59.828Z,8.70
2018-09-28T07:21:40.630Z,9.10
2018-09-28T07:24:21.149Z,8.37
2018-09-28T07:27:02.469Z,8.73
2018-09-28T07:29:43.487Z,9.43
2018-09-28T07:32:24.148Z,9.47
2018-09-28T07:35:05.047Z,10.80
2018-09-28T07:37:45.962Z,11.13
2018-09-28T07:40:26.676Z,9.70
2018-09-28T07:43:07.555Z,12.00
2018-09-28T07:45:48.736Z,11.63
2018-09-28T07:48:29.863Z,12.10
2018-09-28T07:51:11.187Z,12.10
2018-09-28T07:53:51.889Z,13.27
2018-09-28T07:56:33.178Z,13.30
2018-09-28T07:59:13.763Z,12.97
2018-09-28T08:01:54.542Z,12.77
2018-09-28T08:04:35.151Z,13.23
2018-09-28T08:07:16.043Z,14.30
2018-09-28T08:09:56.424Z,14.50
2018-09-28T08:12:37.302Z,14.97
2018-09-28T08:15:18.070Z,15.80
2018-09-28T08:17:58.988Z,15.27
2018-09-28T08:20:40.068Z,14.60
2018-09-28T08:23:21.436Z,14.83
2018-09-28T08:26:02.837Z,16.33
2018-09-28T08:28:43.284Z,14.80
2018-09-28T08:31:24.331Z,14.83
2018-09-28T08:34:05.474Z,14.83
2018-09-28T08:36:46.652Z,16.73
2018-09-28T08:39:27.422Z,15.97
2018-09-28T08:42:09.028Z,15.87
2018-09-28T08:44:49.648Z,16.00
2018-09-28T08:47:30.312Z,16.47
2018-09-28T08:50:11.572Z,16.57
2018-09-28T08:52:52.208Z,16.63
2018-09-28T08:55:34.085Z,17.37
2018-09-28T08:58:14.627Z,16.53
2018-09-28T09:00:55.522Z,16.20
2018-09-28T09:03:36.359Z,15.37
2018-09-28T09:06:17.168Z,16.17
2018-09-28T09:08:57.733Z,15.50
2018-09-28T09:11:38.730Z,15.73
2018-09-28T09:14:20.069Z,16.07
2018-09-28T09:17:01.430Z,16.10
2018-09-28T09:19:41.938Z,15.50
2018-09-28T09:22:22.880Z,16.07
2018-09-28T09:25:04.471Z,16.17
2018-09-28T09:27:44.928Z,16.93
2018-09-28T09:30:25.699Z,16.97
2018-09-28T09:33:07.238Z,17.07
2018-09-28T09:35:48.457Z,17.00
2018-09-28T09:38:29.472Z,17.27
2018-09-28T09:41:10.234Z,16.30
2018-09-28T09:43:50.915Z,17.80
2018-09-28T09:46:31.572Z,16.50
2018-09-28T09:49:12.305Z,16.03
2018-09-28T09:51:52.756Z,16.40
2018-09-28T09:54:33.963Z,15.27
2018-09-28T09:57:14.511Z,17.90
2018-09-28T09:59:55.079Z,19.07
2018-09-28T10:02:40.959Z,17.73
2018-09-28T10:05:21.522Z,18.03
2018-09-28T10:08:02.345Z,16.53
2018-09-28T10:10:43.328Z,18.23
2018-09-28T10:13:24.193Z,21.13
2018-09-28T10:16:04.961Z,19.60
2018-09-28T10:18:45.844Z,21.50
2018-09-28T10:21:27.377Z,20.27
2018-09-28T10:24:08.197Z,21.97
2018-09-28T10:26:49.107Z,19.93
2018-09-28T10:29:30.546Z,20.63
2018-09-28T10:32:11.283Z,21.47
2018-09-28T10:34:52.731Z,20.17
2018-09-28T10:37:34.038Z,18.30
2018-09-28T10:40:15.419Z,18.93
2018-09-28T10:42:56.166Z,19.47
2018-09-28T10:45:37.223Z,18.43
2018-09-28T10:48:17.879Z,19.13
2018-09-28T10:50:59.327Z,18.23
2018-09-28T10:53:39.976Z,18.83
2018-09-28T10:56:20.766Z,17.60
2018-09-28T10:59:01.419Z,17.73
2018-09-28T11:01:41.870Z,19.17
2018-09-28T11:04:23.220Z,16.42
2018-09-28T11:07:04.540Z,13.57
2018-09-28T11:09:47.071Z,13.37
2018-09-28T11:12:28.550Z,12.33
2018-09-28T11:15:09.545Z,11.33
2018-09-28T11:17:50.330Z,12.87
2018-09-28T11:20:31.566Z,12.33
2018-09-28T11:23:13.784Z,11.65
2018-09-28T11:25:54.260Z,12.07
2018-09-28T11:28:35.047Z,12.10
2018-09-28T11:31:15.798Z,11.83
2018-09-28T11:33:56.488Z,11.80
2018-09-28T11:36:37.395Z,12.23
2018-09-28T11:39:18.205Z,11.57
2018-09-28T11:41:59.299Z,11.93
2018-09-28T11:44:39.861Z,11.03
2018-09-28T11:47:20.243Z,11.07
2018-09-28T11:50:01.085Z,10.93
2018-09-28T11:52:41.710Z,9.73
2018-09-28T11:55:26.436Z,10.58
2018-09-28T11:58:07.415Z,10.10
2018-09-28T12:00:47.854Z,9.00
2018-09-28T12:03:28.398Z,8.73
2018-09-28T12:06:09.901Z,8.00
2018-09-28T12:08:50.970Z,6.70
2018-09-28T12:11:31.912Z,6.07
2018-09-28T12:14:12.635Z,5.13
2018-09-28T12:16:53.067Z,4.23
2018-09-28T12:19:33.535Z,4.30
2018-09-28T12:22:15.732Z,4.90
2018-09-28T12:24:56.628Z,5.53
2018-09-28T12:27:37.454Z,6.00
2018-09-28T12:30:18.491Z,6.40
2018-09-28T12:32:59.184Z,6.60
2018-09-28T12:35:40.789Z,5.90
2018-09-28T12:38:21.577Z,5.50
2018-09-28T12:41:02.183Z,5.67
2018-09-28T12:43:42.652Z,6.10
2018-09-28T12:46:23.378Z,7.20
2018-09-28T12:49:06.204Z,6.97
2018-09-28T12:51:46.943Z,6.80
2018-09-28T12:54:27.779Z,6.97
2018-09-28T12:57:08.880Z,7.60
2018-09-28T12:59:49.811Z,6.27
2018-09-28T13:02:30.679Z,7.27
2018-09-28T13:05:11.632Z,6.80
2018-09-28T13:07:52.737Z,6.87
2018-09-28T13:10:34.393Z,7.43
2018-09-28T13:13:15.965Z,7.63
2018-09-28T13:15:56.860Z,7.77
2018-09-28T13:18:37.866Z,8.23
2018-09-28T13:21:19.246Z,8.50
2018-09-28T13:24:00.502Z,8.17
2018-09-28T13:26:41.906Z,8.90
2018-09-28T13:29:22.464Z,8.57
2018-09-28T13:32:03.436Z,10.03
2018-09-28T13:34:44.248Z,9.37
2018-09-28T13:37:25.979Z,9.90
2018-09-28T13:40:08.017Z,9.00
2018-09-28T13:42:48.491Z,9.03
2018-09-28T13:45:29.221Z,9.33
2018-09-28T13:48:10.481Z,9.70
2018-09-28T13:50:51.199Z,9.70
2018-09-28T13:53:31.863Z,9.30
2018-09-28T13:56:13.257Z,9.90
2018-09-28T13:58:54.324Z,10.10
2018-09-28T14:01:34.989Z,12.10
2018-09-28T14:04:16.400Z,11.57
2018-09-28T14:06:57.445Z,11.97
2018-09-28T14:09:38.013Z,12.23
2018-09-28T14:12:18.922Z,11.67
2018-09-28T14:14:59.918Z,12.07
2018-09-28T14:17:40.685Z,11.47
2018-09-28T14:20:21.687Z,11.43
2018-09-28T14:23:02.491Z,12.37
2018-09-28T14:25:43.268Z,12.67
2018-09-28T14:28:23.868Z,12.80
2018-09-28T14:31:05.494Z,11.97
2018-09-28T14:33:46.096Z,12.27
2018-09-28T14:36:28.021Z,12.63
2018-09-28T14:39:10.323Z,12.20
2018-09-28T14:41:51.492Z,12.87
2018-09-28T14:44:32.226Z,12.60
2018-09-28T14:47:13.110Z,11.60
2018-09-28T14:49:53.892Z,10.93
2018-09-28T14:52:34.533Z,10.87
2018-09-28T14:55:15.787Z,11.40
2018-09-28T14:57:56.555Z,11.70
2018-09-28T15:00:37.881Z,11.17
2018-09-28T15:03:19.406Z,10.70
2018-09-28T15:06:00.216Z,10.37
2018-09-28T15:08:41.258Z,8.77
2018-09-28T15:11:21.839Z,9.50
2018-09-28T15:14:02.574Z,8.23
2018-09-28T15:16:43.750Z,7.80
2018-09-28T15:19:25.148Z,8.70
2018-09-28T15:22:06.125Z,6.47
2018-09-28T15:24:47.376Z,7.23
2018-09-28T15:27:28.448Z,3.73
2018-09-28T15:30:09.374Z,3.67
2018-09-28T15:32:51.314Z,3.57
2018-09-28T15:35:32.436Z,2.83
2018-09-28T15:38:13.340Z,2.50
2018-09-28T15:40:54.236Z,2.27
2018-09-28T15:43:35.077Z,2.30
2018-09-28T15:46:16.147Z,2.10
2018-09-28T15:48:56.533Z,1.93
2018-09-28T15:51:37.300Z,2.17
2018-09-28T15:54:18.635Z,2.80
2018-09-28T15:56:59.541Z,2.27
2018-09-28T15:59:40.540Z,1.97
2018-09-28T16:02:21.079Z,2.10
2018-09-28T16:05:03.284Z,2.30
2018-09-28T16:07:44.459Z,2.17
2018-09-28T16:10:25.096Z,2.50
2018-09-28T16:13:05.691Z,2.47
2018-09-28T16:15:46.402Z,2.50
2018-09-28T16:18:28.011Z,2.60
2018-09-28T16:21:08.800Z,2.50
2018-09-28T16:23:49.856Z,3.23
2018-09-28T16:26:30.641Z,3.17
2018-09-28T16:29:11.836Z,3.00
2018-09-28T16:31:52.516Z,2.50
2018-09-28T16:34:33.211Z,3.27
2018-09-28T16:37:15.179Z,2.53
2018-09-28T16:39:56.003Z,3.13
2018-09-28T16:42:36.964Z,2.63
2018-09-28T16:45:17.572Z,2.20
2018-09-28T16:47:58.460Z,2.53
2018-09-28T16:50:39.444Z,3.23
2018-09-28T16:53:20.357Z,3.23
2018-09-28T16:56:01.487Z,2.73
2018-09-28T16:58:42.278Z,2.60
2018-09-28T17:01:23.048Z,3.07
2018-09-28T17:04:04.061Z,2.83
2018-09-28T17:06:45.680Z,3.00
2018-09-28T17:09:26.510Z,2.67
2018-09-28T17:12:07.559Z,2.43
2018-09-28T17:14:48.281Z,2.80
2018-09-28T17:17:29.057Z,2.90
2018-09-28T17:20:09.815Z,2.50
2018-09-28T17:22:50.738Z,2.67
2018-09-28T17:25:31.951Z,2.50
2018-09-28T17:28:12.896Z,2.87
2018-09-28T17:30:53.559Z,2.90
2018-09-28T17:33:34.486Z,2.92
2018-09-28T17:36:15.345Z,2.80
2018-09-28T17:38:56.434Z,3.07
2018-09-28T17:41:37.532Z,3.75
2018-09-28T17:44:19.371Z,3.22
2018-09-28T17:47:00.088Z,3.10
2018-09-28T17:49:41.455Z,3.23
2018-09-28T17:52:22.219Z,3.35
2018-09-28T17:55:04.346Z,3.17
2018-09-28T17:57:44.833Z,2.57
2018-09-28T18:00:25.679Z,2.70
2018-09-28T18:03:06.910Z,2.80
2018-09-28T18:05:47.759Z,2.93
2018-09-28T18:08:29.778Z,3.17
2018-09-28T18:11:10.901Z,2.90
2018-09-28T18:13:51.734Z,2.60
2018-09-28T18:16:32.869Z,2.87
2018-09-28T18:19:13.594Z,2.50
2018-09-28T18:21:54.039Z,2.50
2018-09-28T18:24:35.102Z,2.37
2018-09-28T18:27:16.311Z,2.17
2018-09-28T18:29:58.144Z,2.77
2018-09-28T18:32:38.764Z,2.40
2018-09-28T18:35:19.494Z,2.53
2018-09-28T18:38:00.208Z,2.40
2018-09-28T18:40:40.991Z,3.00
2018-09-28T18:43:21.508Z,2.80
2018-09-28T18:46:02.520Z,2.57
2018-09-28T18:48:43.131Z,3.93
2018-09-28T18:51:24.618Z,5.60
2018-09-28T18:54:05.489Z,3.23
2018-09-28T18:56:46.668Z,3.10
2018-09-28T18:59:27.677Z,2.70
2018-09-28T19:02:08.620Z,2.30
2018-09-28T19:04:50.124Z,2.15
2018-09-28T19:07:31.012Z,2.37
2018-09-28T19:10:11.909Z,2.00
2018-09-28T19:12:53.702Z,2.00
2018-09-28T19:15:35.224Z,1.60
2018-09-28T19:18:16.028Z,1.70
2018-09-28T19:20:57.340Z,2.33
2018-09-28T19:23:38.473Z,2.50
2018-09-28T19:26:19.340Z,2.77
2018-09-28T19:28:59.800Z,1.90
2018-09-28T19:31:40.569Z,2.30
2018-09-28T19:34:21.658Z,1.82
2018-09-28T19:37:03.144Z,1.90
2018-09-28T19:39:44.052Z,2.12
2018-09-28T19:42:24.960Z,2.12
2018-09-28T19:45:06.546Z,2.47
2018-09-28T19:47:47.787Z,1.52
2018-09-28T19:50:28.744Z,2.30
2018-09-28T19:53:10.013Z,2.33
2018-09-28T19:55:51.216Z,2.05
2018-09-28T19:58:32.340Z,2.62
2018-09-28T20:01:14.160Z,2.70
2018-09-28T20:03:55.032Z,2.50
2018-09-28T20:06:36.223Z,2.67
2018-09-28T20:09:17.209Z,2.33
2018-09-28T20:11:58.082Z,2.55
2018-09-28T20:14:38.847Z,2.40
2018-09-28T20:17:20.104Z,3.58
2018-09-28T20:20:01.270Z,3.33
2018-09-28T20:22:42.870Z,2.92
2018-09-28T20:25:24.848Z,2.17
2018-09-28T20:28:05.824Z,2.10
2018-09-28T20:30:47.399Z,2.50
2018-09-28T20:33:28.770Z,2.00
2018-09-28T20:36:10.466Z,2.20
2018-09-28T20:38:52.058Z,2.62
2018-09-28T20:41:33.574Z,2.30
2018-09-28T20:44:14.872Z,2.45
2018-09-28T20:46:55.621Z,1.90
2018-09-28T20:49:36.426Z,2.05
2018-09-28T20:52:17.841Z,1.87
2018-09-28T20:54:58.491Z,2.00
2018-09-28T20:57:39.251Z,1.70
2018-09-28T21:00:20.777Z,2.00
2018-09-28T21:03:01.485Z,1.77
2018-09-28T21:05:42.782Z,1.70
2018-09-28T21:08:23.494Z,2.10
2018-09-28T21:11:04.719Z,1.80
2018-09-28T21:13:45.660Z,2.17
2018-09-28T21:16:26.539Z,1.92
2018-09-28T21:19:07.661Z,1.67
2018-09-28T21:21:48.795Z,1.80
2018-09-28T21:24:29.538Z,2.22
2018-09-28T21:27:10.759Z,1.90
2018-09-28T21:29:51.492Z,2.10
2018-09-28T21:32:32.878Z,1.40
2018-09-28T21:35:14.563Z,1.72
2018-09-28T21:37:56.012Z,1.80
2018-09-28T21:40:37.148Z,1.77
2018-09-28T21:43:18.064Z,1.98
2018-09-28T21:45:59.351Z,1.62
2018-09-28T21:48:40.151Z,1.77
2018-09-28T21:51:21.788Z,2.00
2018-09-28T21:54:03.091Z,1.80
2018-09-28T21:56:44.063Z,1.98
2018-09-28T21:59:24.965Z,1.72
2018-09-28T22:02:05.689Z,2.27
2018-09-28T22:04:46.678Z,1.60
2018-09-28T22:07:28.059Z,1.70
2018-09-28T22:10:08.962Z,1.95
2018-09-28T22:12:50.853Z,2.12
2018-09-28T22:15:31.660Z,1.98
2018-09-28T22:18:12.697Z,2.30
2018-09-28T22:20:53.382Z,2.27
2018-09-28T22:23:34.207Z,1.75
2018-09-28T22:26:15.625Z,1.50
2018-09-28T22:28:56.607Z,1.70
2018-09-28T22:31:38.340Z,1.67
2018-09-28T22:34:19.910Z,1.75
2018-09-28T22:37:00.749Z,2.05
2018-09-28T22:39:41.512Z,2.00
2018-09-28T22:42:22.457Z,2.20
2018-09-28T22:45:03.764Z,1.60
2018-09-28T22:47:44.815Z,1.85
2018-09-28T22:50:25.608Z,1.87
2018-09-28T22:53:06.492Z,1.62
2018-09-28T22:55:47.825Z,2.22
2018-09-28T22:58:28.895Z,2.50
2018-09-28T23:01:09.515Z,2.40
2018-09-28T23:03:50.621Z,2.60
2018-09-28T23:06:31.494Z,2.40
2018-09-28T23:09:12.439Z,2.20
2018-09-28T23:11:53.641Z,2.70
2018-09-28T23:14:34.596Z,2.42
2018-09-28T23:17:15.556Z,3.25
2018-09-28T23:19:56.644Z,2.77
2018-09-28T23:22:37.492Z,2.72
2018-09-28T23:25:18.746Z,3.33
2018-09-28T23:27:59.877Z,2.65
2018-09-28T23:30:41.196Z,2.75
2018-09-28T23:33:21.914Z,2.67
2018-09-28T23:36:03.598Z,3.50
2018-09-28T23:38:44.741Z,3.12
2018-09-28T23:41:25.470Z,3.60
2018-09-28T23:44:06.627Z,3.08
2018-09-28T23:46:47.668Z,2.98
2018-09-28T23:49:28.843Z,3.35
2018-09-28T23:52:09.709Z,2.65
2018-09-28T23:54:50.539Z,2.60
2018-09-28T23:57:31.954Z,3.12
